KMCC/MCC METAR and TAF weather

Enter ICAO airport designator
Station Type Date Time Source
KMCC METAR 2020/07/05 03:15 UTC NOAA

KMCC 050315Z AUTO 23007KT 10SM CLR 33/04 A2991 RMK AO2


Station Type Date Time Source
KMCC Decoded METAR 2020/07/05 03:15 UTC NOAA

Sacramento, McClellan Airfield Airport, CA, United States (KMCC) 38-40N 121-24W
Jul 04, 2020 - 11:15 PM EDT / 2020.07.05 0315 UTC
Wind: from the SW (230 degrees) at 8 MPH (7 KT):0
Visibility: 10 mile(s):0
Sky conditions: clear
Temperature: 91 F (33 C)
Dew Point: 39 F (4 C)
Relative Humidity: 16%
Pressure (altimeter): 29.91 in. Hg (1012 hPa)
ob: KMCC 050315Z AUTO 23007KT 10SM CLR 33/04 A2991 RMK AO2
cycle: 3

Station Type Date Time Source
KMCC TAF 2020/07/04 18:26 UTC NOAA

TAF KMCC 041720Z 0418/0518 26006KT P6SM SKC
FM050600 14005KT P6SM SKC

Example: see airport list